Time;durP1;ratioP1;P1;durP2;ratioP2;P2;SDS_P1;SDS_P2;PMS_P1;PMS_P2;Temp;Humidity;BMP_temperature;BMP_pressure;BME280_temperature;BME280_humidity;BME280_pressure;Samples;Min_cycle;Max_cycle;Signal;HPM_P1;HPM_P2
2022/06/27 00:00:45;;;;;;;;;;;26.70;79.20;;;;;;5056355;28;20334;-53
2022/06/27 00:03:29;;;;;;;;;;;26.70;79.10;;;;;;5056555;28;19915;-51
2022/06/27 00:06:14;;;;;;;;;;;26.40;79.60;;;;;;5042903;28;19972;-57
2022/06/27 00:08:59;;;;;;;;;;;26.20;80.30;;;;;;5035895;28;19916;-53
2022/06/27 00:11:42;;;;;;;;;;;25.50;82.80;;;;;;5036215;28;19935;-53
2022/06/27 00:14:27;;;;;;;;;;;25.30;82.10;;;;;;5036546;28;20008;-57
2022/06/27 00:17:11;;;;;;;;;;;25.20;82.50;;;;;;5036120;28;19916;-56
2022/06/27 00:19:55;;;;;;;;;;;25.30;82.60;;;;;;5036489;28;19920;-56
2022/06/27 00:22:39;;;;;;;;;;;25.40;82.40;;;;;;5035654;28;19980;-54
2022/06/27 00:25:24;;;;;;;;;;;25.50;82.70;;;;;;5035918;28;19940;-54
2022/06/27 00:28:08;;;;;;;;;;;25.30;83.20;;;;;;5035379;28;19959;-55
2022/06/27 00:30:52;;;;;;;;;;;25.30;83.70;;;;;;5035620;28;19935;-55
2022/06/27 00:33:37;;;;;;;;;;;25.30;84.40;;;;;;5043237;28;20370;-54
2022/06/27 00:36:21;;;;;;;;;;;25.40;84.40;;;;;;5035665;28;20383;-52
2022/06/27 00:39:05;;;;;;;;;;;25.30;84.80;;;;;;5035652;28;19936;-55
2022/06/27 00:41:50;;;;;;;;;;;25.20;85.70;;;;;;5035076;28;19994;-54
2022/06/27 00:44:35;;;;;;;;;;;25.10;85.90;;;;;;5035940;28;19923;-55
2022/06/27 00:47:20;;;;;;;;;;;25.10;86.10;;;;;;5036284;28;19954;-54
2022/06/27 00:50:05;;;;;;;;;;;25.10;86.80;;;;;;5035376;28;19971;-57
2022/06/27 00:52:49;;;;;;;;;;;25.10;87.00;;;;;;5036105;28;20000;-56
2022/06/27 00:55:33;;;;;;;;;;;25.30;86.70;;;;;;5015829;28;20013;-54
2022/06/27 00:58:18;;;;;;;;;;;25.30;85.90;;;;;;5017921;28;19915;-57
2022/06/27 01:01:02;;;;;;;;;;;25.10;87.20;;;;;;5035405;28;20280;-53
2022/06/27 01:03:46;;;;;;;;;;;25.00;88.00;;;;;;5034888;28;19919;-56
2022/06/27 01:06:30;;;;;;;;;;;24.80;88.50;;;;;;5034903;28;19916;-56
2022/06/27 01:09:14;;;;;;;;;;;24.80;89.80;;;;;;5034624;28;19996;-52
2022/06/27 01:11:59;;;;;;;;;;;24.70;90.20;;;;;;5035187;28;19920;-56
2022/06/27 01:14:43;;;;;;;;;;;24.60;90.20;;;;;;5035569;28;19974;-53
2022/06/27 01:17:28;;;;;;;;;;;24.60;90.20;;;;;;5035469;28;20403;-55
2022/06/27 01:20:12;;;;;;;;;;;24.50;90.40;;;;;;5034739;28;19983;-55
2022/06/27 01:22:56;;;;;;;;;;;24.40;90.90;;;;;;5033973;28;19955;-53
2022/06/27 01:25:40;;;;;;;;;;;24.50;90.60;;;;;;5034740;28;20379;-51
2022/06/27 01:28:25;;;;;;;;;;;24.40;90.50;;;;;;5033367;28;19979;-57
2022/06/27 01:31:13;;;;;;;;;;;24.30;90.90;;;;;;5034406;28;19959;-55
2022/06/27 01:33:57;;;;;;;;;;;24.20;90.90;;;;;;5035244;28;19915;-52
2022/06/27 01:36:41;;;;;;;;;;;24.30;91.40;;;;;;5018535;28;20022;-54
2022/06/27 01:39:26;;;;;;;;;;;24.50;91.30;;;;;;5034229;28;19920;-56
2022/06/27 01:42:10;;;;;;;;;;;24.70;91.30;;;;;;5034764;28;20319;-51
2022/06/27 01:44:55;;;;;;;;;;;24.80;91.40;;;;;;5022482;28;19920;-53
2022/06/27 01:47:39;;;;;;;;;;;24.70;91.40;;;;;;5033769;28;19917;-53
2022/06/27 01:50:24;;;;;;;;;;;24.60;91.60;;;;;;5033521;28;19976;-57
2022/06/27 01:53:08;;;;;;;;;;;24.50;92.00;;;;;;5034317;28;19963;-51
2022/06/27 01:55:52;;;;;;;;;;;24.50;92.30;;;;;;5033892;28;19920;-56
2022/06/27 01:58:37;;;;;;;;;;;24.40;91.80;;;;;;5033384;28;19920;-54
2022/06/27 02:01:21;;;;;;;;;;;24.30;92.50;;;;;;5034734;28;19962;-53
2022/06/27 02:04:05;;;;;;;;;;;24.10;92.70;;;;;;5033426;28;19966;-53
2022/06/27 02:06:50;;;;;;;;;;;24.00;93.20;;;;;;5033547;28;19928;-56
2022/06/27 02:09:35;;;;;;;;;;;23.80;93.50;;;;;;5013832;28;19925;-53
2022/06/27 02:12:19;;;;;;;;;;;23.80;94.00;;;;;;5016532;28;19928;-58
2022/06/27 02:15:03;;;;;;;;;;;23.70;93.90;;;;;;5034119;28;19959;-56
2022/06/27 02:17:47;;;;;;;;;;;23.70;94.20;;;;;;5033417;28;20295;-53
2022/06/27 02:20:32;;;;;;;;;;;23.80;93.70;;;;;;5032160;28;20419;-56
2022/06/27 02:23:16;;;;;;;;;;;23.80;93.40;;;;;;5032685;28;20273;-55
2022/06/27 02:26:00;;;;;;;;;;;23.70;94.00;;;;;;5033312;28;19915;-53
2022/06/27 02:28:44;;;;;;;;;;;23.70;94.20;;;;;;5032939;28;19970;-53
2022/06/27 02:31:29;;;;;;;;;;;23.70;94.40;;;;;;5032853;28;19920;-56
2022/06/27 02:34:46;;;;;;;;;;;23.70;94.60;;;;;;5026617;28;20008;-52
2022/06/27 02:37:24;;;;;;;;;;;23.50;95.00;;;;;;5030845;28;20435;-52
2022/06/27 02:40:08;;;;;;;;;;;23.60;94.80;;;;;;5031763;28;20046;-51
2022/06/27 02:42:54;;;;;;;;;;;23.30;95.60;;;;;;5036422;28;20280;-51
2022/06/27 02:45:39;;;;;;;;;;;23.40;95.70;;;;;;5046658;28;19920;-54
2022/06/27 02:48:24;;;;;;;;;;;23.30;95.70;;;;;;5032937;28;20280;-51
2022/06/27 02:51:10;;;;;;;;;;;23.30;96.10;;;;;;5032803;28;19916;-55
2022/06/27 02:53:54;;;;;;;;;;;23.20;96.10;;;;;;5032486;28;20391;-53
2022/06/27 02:56:41;;;;;;;;;;;23.20;96.40;;;;;;5032723;28;20379;-54
2022/06/27 02:59:28;;;;;;;;;;;23.20;96.60;;;;;;5033375;28;20014;-54
2022/06/27 03:02:13;;;;;;;;;;;23.20;96.40;;;;;;5033071;28;20002;-54
2022/06/27 03:04:57;;;;;;;;;;;23.40;96.30;;;;;;5034560;28;19963;-52
2022/06/27 03:07:43;;;;;;;;;;;23.60;96.00;;;;;;5035697;28;19928;-50
2022/06/27 03:10:27;;;;;;;;;;;23.80;95.60;;;;;;5015325;28;19971;-55
2022/06/27 03:13:12;;;;;;;;;;;23.90;95.40;;;;;;5016567;28;19960;-52
2022/06/27 03:15:57;;;;;;;;;;;24.10;95.10;;;;;;5033866;28;20434;-56
2022/06/27 03:18:41;;;;;;;;;;;24.30;94.80;;;;;;5034988;28;19928;-55
2022/06/27 03:21:25;;;;;;;;;;;24.30;94.60;;;;;;5036991;28;20407;-51
2022/06/27 03:24:10;;;;;;;;;;;24.20;94.60;;;;;;5035710;28;20407;-56
2022/06/27 03:26:54;;;;;;;;;;;24.10;94.90;;;;;;5036691;28;19916;-57
2022/06/27 03:29:38;;;;;;;;;;;24.00;95.40;;;;;;5035918;28;20383;-55
2022/06/27 03:32:22;;;;;;;;;;;24.10;95.30;;;;;;5037121;28;19939;-57
2022/06/27 03:35:07;;;;;;;;;;;24.20;95.20;;;;;;5031848;28;19971;-55
2022/06/27 03:37:51;;;;;;;;;;;24.40;95.30;;;;;;5036671;28;19915;-55
2022/06/27 03:40:35;;;;;;;;;;;24.30;95.40;;;;;;5035068;28;19924;-55
2022/06/27 03:43:19;;;;;;;;;;;24.20;95.70;;;;;;5015628;28;19916;-56
2022/06/27 03:46:03;;;;;;;;;;;24.10;95.90;;;;;;5016991;28;19963;-53
2022/06/27 03:51:52;;;;;;;;;;;23.60;96.70;;;;;;5036969;28;20379;-57
2022/06/27 03:54:36;;;;;;;;;;;23.60;97.00;;;;;;5036136;28;19932;-55
2022/06/27 03:57:21;;;;;;;;;;;23.80;96.90;;;;;;5034911;28;19916;-53
2022/06/27 04:00:08;;;;;;;;;;;24.10;96.60;;;;;;5036131;28;20148;-56
2022/06/27 04:02:52;;;;;;;;;;;24.40;96.00;;;;;;5035599;28;19911;-53
2022/06/27 04:05:37;;;;;;;;;;;24.60;95.60;;;;;;5036347;28;19916;-56
2022/06/27 04:08:21;;;;;;;;;;;24.70;95.40;;;;;;5035869;28;20104;-56
2022/06/27 04:11:05;;;;;;;;;;;24.90;95.10;;;;;;5035831;28;19934;-57
2022/06/27 04:13:49;;;;;;;;;;;25.00;94.80;;;;;;5036078;28;20348;-54
2022/06/27 04:16:33;;;;;;;;;;;25.00;94.60;;;;;;5035983;28;20012;-57
2022/06/27 04:19:18;;;;;;;;;;;25.10;94.50;;;;;;5035698;28;20000;-56
2022/06/27 04:22:03;;;;;;;;;;;25.10;94.40;;;;;;5036595;28;20293;-54
2022/06/27 04:24:47;;;;;;;;;;;25.20;94.30;;;;;;5035848;28;19967;-52
2022/06/27 04:27:31;;;;;;;;;;;25.20;94.30;;;;;;5035330;28;19931;-55
2022/06/27 04:30:18;;;;;;;;;;;25.20;94.20;;;;;;5034368;28;20452;-55
2022/06/27 04:33:03;;;;;;;;;;;25.20;94.10;;;;;;5035343;28;19971;-54
2022/06/27 04:35:47;;;;;;;;;;;25.30;94.10;;;;;;5036392;28;19920;-57
2022/06/27 04:38:31;;;;;;;;;;;25.30;93.90;;;;;;5035409;28;19928;-51
2022/06/27 04:41:16;;;;;;;;;;;25.30;94.00;;;;;;5035389;28;19978;-56
2022/06/27 04:44:01;;;;;;;;;;;25.30;94.00;;;;;;5038031;28;19920;-55
2022/06/27 04:46:48;;;;;;;;;;;25.30;93.90;;;;;;5035130;28;20194;-53
2022/06/27 04:49:33;;;;;;;;;;;25.40;93.90;;;;;;5036652;28;20012;-52
2022/06/27 04:52:18;;;;;;;;;;;25.40;93.80;;;;;;5035459;28;19911;-54
2022/06/27 04:55:02;;;;;;;;;;;25.40;93.70;;;;;;5035115;28;19923;-56
2022/06/27 04:57:46;;;;;;;;;;;25.50;93.80;;;;;;5020692;28;19967;-55
2022/06/27 05:00:30;;;;;;;;;;;25.50;93.80;;;;;;5026179;28;20371;-57
2022/06/27 05:03:14;;;;;;;;;;;25.50;93.70;;;;;;5035429;28;19916;-61
2022/06/27 05:05:59;;;;;;;;;;;25.60;93.60;;;;;;5035032;28;20379;-53
2022/06/27 05:08:43;;;;;;;;;;;25.70;93.40;;;;;;5034519;28;19944;-54
2022/06/27 05:11:27;;;;;;;;;;;25.80;92.90;;;;;;5035182;28;19963;-53
2022/06/27 05:14:11;;;;;;;;;;;25.80;92.80;;;;;;5035092;28;20382;-52
2022/06/27 05:16:55;;;;;;;;;;;25.80;92.80;;;;;;5033995;28;19979;-55
2022/06/27 05:19:40;;;;;;;;;;;25.90;92.80;;;;;;5033910;28;20007;-56
2022/06/27 05:22:24;;;;;;;;;;;26.00;92.50;;;;;;5018749;28;19916;-54
2022/06/27 05:25:09;;;;;;;;;;;26.00;92.20;;;;;;5013846;28;19916;-58
2022/06/27 05:27:56;;;;;;;;;;;26.00;92.20;;;;;;5017317;28;19916;-53
2022/06/27 05:30:40;;;;;;;;;;;26.20;92.10;;;;;;5034786;28;20208;-54
2022/06/27 05:33:24;;;;;;;;;;;26.30;92.00;;;;;;5042120;28;20428;-53
2022/06/27 05:36:10;;;;;;;;;;;26.40;91.80;;;;;;5043268;28;20016;-52
2022/06/27 05:38:55;;;;;;;;;;;26.40;91.70;;;;;;5034672;28;20008;-56
2022/06/27 05:41:43;;;;;;;;;;;26.40;91.70;;;;;;5018181;28;19920;-55
2022/06/27 05:44:28;;;;;;;;;;;26.40;91.60;;;;;;5050511;28;19912;-54
2022/06/27 05:47:12;;;;;;;;;;;26.50;91.60;;;;;;5033415;28;20000;-51
2022/06/27 05:49:56;;;;;;;;;;;26.60;91.40;;;;;;5033587;28;20430;-57
2022/06/27 05:52:41;;;;;;;;;;;26.70;91.20;;;;;;5013418;28;19916;-56
2022/06/27 05:55:28;;;;;;;;;;;26.90;91.00;;;;;;5003243;28;19919;-56
2022/06/27 05:58:13;;;;;;;;;;;26.90;90.80;;;;;;5034212;28;19912;-54
2022/06/27 06:00:57;;;;;;;;;;;27.00;90.60;;;;;;5033749;28;19920;-55
2022/06/27 06:03:41;;;;;;;;;;;27.10;90.40;;;;;;5033275;28;19998;-55
2022/06/27 06:06:27;;;;;;;;;;;27.10;90.20;;;;;;5033585;28;19935;-54
2022/06/27 06:09:13;;;;;;;;;;;27.10;90.30;;;;;;5018726;28;19952;-51
2022/06/27 06:11:59;;;;;;;;;;;27.30;90.10;;;;;;5033253;28;19967;-53
2022/06/27 06:14:43;;;;;;;;;;;27.40;90.10;;;;;;5013906;28;20256;-55
2022/06/27 06:17:28;;;;;;;;;;;27.50;90.00;;;;;;5032018;28;19955;-55
2022/06/27 06:20:12;;;;;;;;;;;27.60;89.70;;;;;;5033376;28;19919;-57
2022/06/27 06:22:56;;;;;;;;;;;27.80;89.20;;;;;;5033141;28;19919;-53
2022/06/27 06:25:43;;;;;;;;;;;28.00;88.50;;;;;;5035363;28;19955;-50
2022/06/27 06:28:30;;;;;;;;;;;28.10;87.30;;;;;;5052902;28;19915;-52
2022/06/27 06:31:21;;;;;;;;;;;28.10;86.90;;;;;;5036334;28;20376;-56
2022/06/27 06:34:06;;;;;;;;;;;28.00;87.00;;;;;;5039996;28;19958;-57
2022/06/27 06:36:50;;;;;;;;;;;27.90;87.20;;;;;;5031605;28;20346;-56
2022/06/27 06:39:34;;;;;;;;;;;27.90;87.30;;;;;;5033393;28;20380;-57
2022/06/27 06:42:18;;;;;;;;;;;27.90;86.90;;;;;;5034247;28;20084;-54
2022/06/27 06:45:03;;;;;;;;;;;27.90;86.90;;;;;;5013643;28;19912;-52
2022/06/27 06:47:49;;;;;;;;;;;28.00;86.50;;;;;;5012291;28;19912;-56
2022/06/27 06:50:33;;;;;;;;;;;28.10;86.00;;;;;;5012887;28;19916;-56
2022/06/27 06:53:17;;;;;;;;;;;28.10;85.60;;;;;;5012036;28;19951;-55
2022/06/27 06:56:03;;;;;;;;;;;28.10;85.60;;;;;;5013993;28;19979;-55
2022/06/27 06:58:47;;;;;;;;;;;28.10;86.10;;;;;;5013427;28;19912;-55
2022/06/27 07:01:33;;;;;;;;;;;28.20;85.90;;;;;;5013432;28;19917;-54
2022/06/27 07:04:17;;;;;;;;;;;28.30;85.40;;;;;;5014435;28;19916;-54
2022/06/27 07:07:02;;;;;;;;;;;28.50;84.40;;;;;;5013859;28;19961;-54
2022/06/27 07:09:47;;;;;;;;;;;28.60;84.10;;;;;;5013576;28;19917;-53
2022/06/27 07:12:33;;;;;;;;;;;28.60;84.10;;;;;;5013883;28;19952;-56
2022/06/27 07:15:18;;;;;;;;;;;28.70;83.90;;;;;;5013926;28;19912;-55
2022/06/27 07:18:02;;;;;;;;;;;28.70;83.10;;;;;;5013190;28;19955;-56
2022/06/27 07:20:47;;;;;;;;;;;28.70;83.20;;;;;;5013204;28;20355;-53
2022/06/27 07:23:31;;;;;;;;;;;28.90;82.80;;;;;;5014045;28;20309;-56
2022/06/27 07:26:17;;;;;;;;;;;29.00;81.30;;;;;;5013341;28;19916;-54
2022/06/27 07:29:03;;;;;;;;;;;29.00;81.80;;;;;;5013014;28;19936;-55
2022/06/27 07:31:47;;;;;;;;;;;29.10;81.00;;;;;;5013542;28;19913;-55
2022/06/27 07:34:31;;;;;;;;;;;29.10;80.50;;;;;;5030195;28;19927;-56
2022/06/27 07:37:16;;;;;;;;;;;29.20;79.80;;;;;;5017980;28;19920;-54
2022/06/27 07:40:00;;;;;;;;;;;29.30;80.00;;;;;;5033694;28;20391;-55
2022/06/27 07:42:45;;;;;;;;;;;29.10;79.40;;;;;;5049623;28;19919;-57
2022/06/27 07:45:30;;;;;;;;;;;29.00;80.20;;;;;;5031875;28;19988;-55
2022/06/27 07:48:17;;;;;;;;;;;28.70;80.50;;;;;;5032277;28;20018;-56
2022/06/27 07:51:01;;;;;;;;;;;29.10;79.60;;;;;;5028341;28;20023;-60
2022/06/27 07:53:47;;;;;;;;;;;29.30;79.50;;;;;;5043936;28;19967;-55
2022/06/27 07:56:31;;;;;;;;;;;29.30;79.30;;;;;;5035792;28;19947;-57
2022/06/27 07:59:17;;;;;;;;;;;29.30;78.80;;;;;;5052185;28;20394;-55
2022/06/27 08:02:01;;;;;;;;;;;29.10;79.50;;;;;;5033091;28;19916;-54
2022/06/27 08:04:46;;;;;;;;;;;28.90;80.00;;;;;;5033027;28;19986;-56
2022/06/27 08:07:30;;;;;;;;;;;29.00;80.30;;;;;;5037582;28;19959;-54
2022/06/27 08:10:14;;;;;;;;;;;29.20;80.10;;;;;;5028004;28;19924;-57
2022/06/27 08:12:59;;;;;;;;;;;29.50;79.80;;;;;;5021559;28;20288;-57
2022/06/27 08:15:44;;;;;;;;;;;29.60;78.60;;;;;;5038338;28;20414;-55
2022/06/27 08:18:31;;;;;;;;;;;29.50;78.30;;;;;;5038480;28;19920;-59
2022/06/27 08:21:17;;;;;;;;;;;29.30;78.50;;;;;;5038596;28;20186;-57
2022/06/27 08:24:03;;;;;;;;;;;29.50;77.90;;;;;;5059958;28;19912;-57
2022/06/27 08:26:49;;;;;;;;;;;29.70;77.80;;;;;;5035791;28;20387;-55
2022/06/27 08:29:34;;;;;;;;;;;29.70;77.60;;;;;;5035467;28;19923;-52
2022/06/27 08:32:18;;;;;;;;;;;29.90;76.70;;;;;;5020090;28;19920;-52
2022/06/27 08:35:03;;;;;;;;;;;29.90;76.90;;;;;;5032667;28;19919;-52
2022/06/27 08:37:47;;;;;;;;;;;29.90;76.80;;;;;;5035592;28;19919;-52
2022/06/27 08:40:31;;;;;;;;;;;29.90;76.20;;;;;;5035873;28;19911;-53
2022/06/27 08:43:15;;;;;;;;;;;29.80;76.50;;;;;;5042404;28;20264;-52
2022/06/27 08:45:59;;;;;;;;;;;30.00;76.10;;;;;;5055301;28;19916;-53
2022/06/27 08:48:45;;;;;;;;;;;29.90;76.30;;;;;;5055032;28;19931;-51
2022/06/27 08:51:29;;;;;;;;;;;29.70;76.90;;;;;;5054826;28;20581;-55
2022/06/27 08:54:13;;;;;;;;;;;29.80;77.60;;;;;;5055757;28;20478;-54
2022/06/27 08:56:58;;;;;;;;;;;29.60;77.80;;;;;;5054270;28;19923;-53
2022/06/27 08:59:44;;;;;;;;;;;29.50;77.80;;;;;;5055223;28;19916;-50
2022/06/27 09:02:28;;;;;;;;;;;29.50;78.00;;;;;;5055085;28;19916;-51
2022/06/27 09:05:18;;;;;;;;;;;29.60;77.70;;;;;;5054528;28;19915;-52
2022/06/27 09:08:04;;;;;;;;;;;29.90;77.20;;;;;;5055165;28;19912;-51
2022/06/27 09:10:48;;;;;;;;;;;29.90;77.30;;;;;;5051760;28;20383;-53
2022/06/27 09:13:32;;;;;;;;;;;29.60;77.70;;;;;;5034788;28;20035;-53
2022/06/27 09:16:16;;;;;;;;;;;29.40;77.90;;;;;;5034410;28;19932;-50
2022/06/27 09:19:01;;;;;;;;;;;29.50;77.80;;;;;;5034940;28;19928;-52
2022/06/27 09:22:06;;;;;;;;;;;29.80;77.40;;;;;;5020112;28;20335;-53
2022/06/27 09:24:56;;;;;;;;;;;30.00;75.80;;;;;;5034910;28;20003;-52
2022/06/27 09:27:45;;;;;;;;;;;30.10;76.10;;;;;;5034309;28;19912;-51
2022/06/27 09:30:29;;;;;;;;;;;30.10;76.60;;;;;;5035026;28;20043;-54
2022/06/27 09:33:16;;;;;;;;;;;30.00;76.10;;;;;;5034841;28;19925;-54
2022/06/27 09:36:08;;;;;;;;;;;30.00;76.60;;;;;;5034740;28;19919;-50
2022/06/27 09:38:52;;;;;;;;;;;30.00;77.90;;;;;;5035181;28;20379;-55
2022/06/27 09:41:39;;;;;;;;;;;30.00;77.50;;;;;;5019629;28;19912;-51
2022/06/27 09:44:25;;;;;;;;;;;30.10;76.70;;;;;;5034899;28;19916;-52
2022/06/27 09:47:30;;;;;;;;;;;30.40;74.60;;;;;;5034188;28;19912;-52
2022/06/27 09:50:14;;;;;;;;;;;30.50;74.80;;;;;;5034800;28;19963;-53
2022/06/27 09:52:59;;;;;;;;;;;30.80;73.00;;;;;;5034603;28;19931;-53
2022/06/27 09:55:45;;;;;;;;;;;30.80;72.50;;;;;;5039280;28;20387;-53
2022/06/27 09:58:30;;;;;;;;;;;30.90;72.20;;;;;;5054757;28;19954;-49
2022/06/27 10:01:15;;;;;;;;;;;31.10;71.80;;;;;;5055239;28;20334;-53
2022/06/27 10:04:00;;;;;;;;;;;31.10;71.80;;;;;;5055058;28;20371;-52
2022/06/27 10:06:44;;;;;;;;;;;31.20;71.60;;;;;;5053899;28;20346;-54
2022/06/27 10:09:30;;;;;;;;;;;31.10;70.60;;;;;;5054291;28;19967;-52
2022/06/27 10:12:31;;;;;;;;;;;31.00;71.40;;;;;;5029488;28;20093;-52
2022/06/27 10:15:22;;;;;;;;;;;31.20;71.60;;;;;;5033995;28;20300;-55
2022/06/27 10:18:06;;;;;;;;;;;31.30;70.50;;;;;;5033708;28;19916;-54
2022/06/27 10:20:52;;;;;;;;;;;31.30;71.30;;;;;;5033971;28;19944;-51
2022/06/27 10:23:38;;;;;;;;;;;31.40;70.40;;;;;;5034531;28;20055;-49
2022/06/27 10:26:40;;;;;;;;;;;31.30;69.90;;;;;;5033123;28;20024;-53
2022/06/27 10:29:34;;;;;;;;;;;31.40;70.60;;;;;;5032474;28;20414;-55
2022/06/27 10:32:41;;;;;;;;;;;31.30;71.10;;;;;;5032633;28;19962;-52
2022/06/27 10:35:26;;;;;;;;;;;31.20;70.60;;;;;;5033303;28;19915;-53
2022/06/27 10:38:30;;;;;;;;;;;31.20;70.50;;;;;;5032862;28;19924;-54
2022/06/27 10:41:17;;;;;;;;;;;31.10;70.70;;;;;;5033518;28;19912;-55
2022/06/27 10:44:03;;;;;;;;;;;31.10;70.80;;;;;;5046959;28;19951;-55
2022/06/27 10:46:47;;;;;;;;;;;31.30;70.00;;;;;;5037635;28;19963;-56
2022/06/27 10:49:31;;;;;;;;;;;31.50;70.50;;;;;;5053500;28;19966;-56
2022/06/27 10:52:21;;;;;;;;;;;31.70;69.60;;;;;;5053881;28;19998;-52
2022/06/27 10:55:25;;;;;;;;;;;31.80;69.40;;;;;;5053594;28;19916;-55
2022/06/27 10:58:23;;;;;;;;;;;31.80;69.50;;;;;;5052762;28;19955;-57
2022/06/27 11:01:14;;;;;;;;;;;32.10;69.70;;;;;;5052878;28;19976;-53
2022/06/27 11:03:59;;;;;;;;;;;32.00;68.80;;;;;;5053066;28;19967;-52
2022/06/27 11:06:52;;;;;;;;;;;31.70;68.10;;;;;;5052852;28;20375;-50
2022/06/27 11:09:43;;;;;;;;;;;31.60;68.90;;;;;;5046006;28;19939;-56
2022/06/27 11:12:28;;;;;;;;;;;31.70;68.80;;;;;;5030835;28;19916;-49
2022/06/27 11:15:13;;;;;;;;;;;31.80;68.70;;;;;;5014902;28;20221;-52
2022/06/27 11:17:58;;;;;;;;;;;32.00;67.20;;;;;;5031912;28;20372;-54
2022/06/27 11:20:43;;;;;;;;;;;32.00;66.90;;;;;;5032443;28;19983;-52
2022/06/27 11:23:28;;;;;;;;;;;31.90;67.20;;;;;;5032251;28;19963;-51
2022/06/27 11:26:12;;;;;;;;;;;32.30;67.20;;;;;;5031938;28;19919;-52
2022/06/27 11:32:13;;;;;;;;;;;32.00;67.80;;;;;;5013315;28;20032;-50
2022/06/27 11:34:58;;;;;;;;;;;32.00;67.80;;;;;;5018528;28;20000;-53
2022/06/27 11:37:42;;;;;;;;;;;31.70;67.80;;;;;;5033275;28;20059;-52
2022/06/27 11:40:26;;;;;;;;;;;31.80;67.70;;;;;;5021029;28;19920;-49
2022/06/27 11:43:10;;;;;;;;;;;31.70;67.50;;;;;;5030820;28;20380;-48
2022/06/27 11:45:55;;;;;;;;;;;31.70;67.30;;;;;;5025368;28;19932;-48
2022/06/27 11:48:48;;;;;;;;;;;31.80;67.30;;;;;;5031175;28;20572;-56
2022/06/27 11:51:34;;;;;;;;;;;32.00;66.50;;;;;;5035923;28;19959;-51
2022/06/27 11:54:20;;;;;;;;;;;32.20;65.80;;;;;;5035817;28;19967;-51
2022/06/27 11:57:19;;;;;;;;;;;32.10;66.30;;;;;;5034670;28;19948;-54
2022/06/27 12:00:04;;;;;;;;;;;32.20;66.40;;;;;;5016605;28;19916;-56
2022/06/27 12:02:58;;;;;;;;;;;32.20;66.70;;;;;;5018759;28;19917;-53
2022/06/27 12:05:42;;;;;;;;;;;32.50;66.00;;;;;;5020682;28;20272;-53
2022/06/27 12:08:27;;;;;;;;;;;32.70;65.50;;;;;;5035449;28;19924;-54
2022/06/27 12:11:17;;;;;;;;;;;32.90;65.30;;;;;;5036118;28;19959;-52
2022/06/27 12:14:01;;;;;;;;;;;33.00;65.60;;;;;;5035964;28;20288;-50
2022/06/27 12:16:47;;;;;;;;;;;33.00;66.30;;;;;;5035512;28;19931;-55
2022/06/27 12:19:34;;;;;;;;;;;32.50;68.50;;;;;;5036364;28;20287;-53
2022/06/27 12:22:19;;;;;;;;;;;32.00;69.90;;;;;;5034723;28;20422;-54
2022/06/27 12:25:03;;;;;;;;;;;31.60;71.10;;;;;;5020798;28;20293;-51
2022/06/27 12:27:48;;;;;;;;;;;31.30;72.40;;;;;;5034722;28;19911;-52
2022/06/27 12:30:33;;;;;;;;;;;31.00;73.00;;;;;;5035713;28;20296;-55
2022/06/27 12:33:17;;;;;;;;;;;31.20;73.30;;;;;;5036198;28;20294;-55
2022/06/27 12:36:01;;;;;;;;;;;31.30;73.30;;;;;;5034771;28;20365;-57
2022/06/27 12:38:45;;;;;;;;;;;31.20;72.30;;;;;;5054899;28;19974;-53
2022/06/27 12:41:30;;;;;;;;;;;31.20;72.50;;;;;;5036900;28;19924;-52
2022/06/27 12:44:14;;;;;;;;;;;31.40;71.70;;;;;;5035562;28;19942;-49
2022/06/27 12:46:58;;;;;;;;;;;31.40;71.30;;;;;;5035602;28;19963;-54
2022/06/27 12:49:42;;;;;;;;;;;31.30;71.40;;;;;;5054818;28;19919;-52
2022/06/27 12:52:26;;;;;;;;;;;31.40;70.70;;;;;;5054402;28;19954;-52
2022/06/27 12:55:11;;;;;;;;;;;31.20;72.10;;;;;;5049734;28;19924;-54
2022/06/27 12:57:55;;;;;;;;;;;30.90;71.90;;;;;;5036413;28;19959;-57
2022/06/27 13:00:39;;;;;;;;;;;31.00;71.80;;;;;;5036537;28;19920;-54
2022/06/27 13:03:24;;;;;;;;;;;30.70;72.80;;;;;;5037202;28;19920;-55
2022/06/27 13:06:08;;;;;;;;;;;30.80;72.10;;;;;;5035754;28;19912;-57
2022/06/27 13:08:52;;;;;;;;;;;30.60;70.90;;;;;;5038673;28;19924;-54
2022/06/27 13:11:37;;;;;;;;;;;30.00;71.70;;;;;;5041437;28;20334;-56
2022/06/27 13:14:21;;;;;;;;;;;29.90;72.80;;;;;;5041986;28;19943;-50
2022/06/27 13:17:05;;;;;;;;;;;29.70;73.20;;;;;;5040070;28;20326;-53
2022/06/27 13:19:51;;;;;;;;;;;29.40;74.90;;;;;;5035632;28;19919;-54
2022/06/27 13:22:35;;;;;;;;;;;29.30;75.60;;;;;;5034962;28;19920;-52
2022/06/27 13:25:20;;;;;;;;;;;29.20;75.90;;;;;;5033918;28;19919;-52
2022/06/27 13:28:04;;;;;;;;;;;29.10;75.70;;;;;;5035627;28;19912;-54
2022/06/27 13:30:48;;;;;;;;;;;29.00;76.00;;;;;;5035331;28;19919;-55
2022/06/27 13:33:32;;;;;;;;;;;29.00;76.10;;;;;;5034513;28;19928;-51
2022/06/27 13:36:17;;;;;;;;;;;28.80;77.10;;;;;;5034860;28;19985;-50
2022/06/27 13:39:01;;;;;;;;;;;28.70;77.60;;;;;;5034275;28;19924;-46
2022/06/27 13:41:45;;;;;;;;;;;28.90;77.80;;;;;;5034151;28;19935;-48
2022/06/27 13:44:30;;;;;;;;;;;29.00;76.20;;;;;;5026546;28;19940;-48
2022/06/27 13:47:14;;;;;;;;;;;28.90;74.20;;;;;;5033474;28;20012;-51
2022/06/27 13:49:58;;;;;;;;;;;28.70;74.60;;;;;;5033611;28;19920;-53
2022/06/27 13:52:42;;;;;;;;;;;28.50;74.40;;;;;;5034297;28;19973;-52
2022/06/27 13:55:26;;;;;;;;;;;28.50;73.10;;;;;;5034159;28;19923;-54
2022/06/27 13:58:11;;;;;;;;;;;28.50;73.20;;;;;;5033206;28;20002;-55
2022/06/27 14:00:55;;;;;;;;;;;28.40;74.90;;;;;;5033640;28;19979;-51
2022/06/27 14:03:39;;;;;;;;;;;28.50;75.80;;;;;;5014072;28;19963;-50
2022/06/27 14:09:27;;;;;;;;;;;28.70;76.30;;;;;;5033570;28;19924;-55
2022/06/27 14:12:11;;;;;;;;;;;28.90;76.50;;;;;;5033379;28;19935;-52
2022/06/27 14:14:55;;;;;;;;;;;29.00;76.60;;;;;;5034050;28;19919;-55
2022/06/27 14:17:39;;;;;;;;;;;28.80;76.80;;;;;;5033253;28;19929;-54
2022/06/27 14:20:23;;;;;;;;;;;28.70;77.70;;;;;;5034014;28;20323;-51
2022/06/27 14:23:08;;;;;;;;;;;28.50;76.80;;;;;;5017860;28;19967;-55
2022/06/27 14:25:52;;;;;;;;;;;28.30;77.90;;;;;;5013578;28;20389;-53
2022/06/27 14:28:36;;;;;;;;;;;28.20;78.00;;;;;;5026801;28;20000;-48
2022/06/27 14:31:20;;;;;;;;;;;28.40;77.70;;;;;;5033571;28;19916;-53
2022/06/27 14:34:05;;;;;;;;;;;28.60;77.80;;;;;;5033567;28;19967;-50
2022/06/27 14:36:49;;;;;;;;;;;28.50;77.40;;;;;;5032540;28;19920;-51
2022/06/27 14:39:34;;;;;;;;;;;28.80;77.30;;;;;;5025211;28;19964;-53
2022/06/27 14:42:23;;;;;;;;;;;28.70;77.00;;;;;;5040362;28;20562;-54
2022/06/27 14:45:07;;;;;;;;;;;28.30;78.00;;;;;;5060685;28;19912;-52
2022/06/27 14:47:51;;;;;;;;;;;28.30;78.00;;;;;;5048576;28;19935;-52
2022/06/27 14:50:35;;;;;;;;;;;28.30;78.80;;;;;;5033543;28;19970;-48
2022/06/27 14:53:20;;;;;;;;;;;28.60;78.60;;;;;;5033404;28;20427;-55
2022/06/27 14:56:04;;;;;;;;;;;28.90;78.10;;;;;;5032271;28;19917;-54
2022/06/27 14:58:48;;;;;;;;;;;28.90;77.90;;;;;;5032118;28;20003;-53
2022/06/27 15:01:32;;;;;;;;;;;29.10;78.20;;;;;;5033059;28;19959;-57
2022/06/27 15:04:17;;;;;;;;;;;29.20;77.40;;;;;;5049315;28;19916;-55
2022/06/27 15:07:01;;;;;;;;;;;28.90;78.20;;;;;;5032741;28;20281;-57
2022/06/27 15:09:45;;;;;;;;;;;29.00;78.20;;;;;;5032490;28;20414;-52
2022/06/27 15:12:29;;;;;;;;;;;28.50;78.50;;;;;;5032990;28;19998;-54
2022/06/27 15:15:14;;;;;;;;;;;28.50;78.50;;;;;;5022700;28;19947;-59
2022/06/27 15:17:58;;;;;;;;;;;28.50;76.90;;;;;;5036545;28;19959;-63
2022/06/27 15:20:42;;;;;;;;;;;28.20;75.50;;;;;;5037041;28;19920;-55
2022/06/27 15:23:26;;;;;;;;;;;28.30;74.60;;;;;;5008480;28;19916;-55
2022/06/27 15:26:11;;;;;;;;;;;28.30;74.10;;;;;;5036684;28;19975;-58
2022/06/27 15:28:55;;;;;;;;;;;28.50;72.50;;;;;;5041800;28;19923;-60
2022/06/27 15:31:40;;;;;;;;;;;28.60;72.80;;;;;;5037455;28;19931;-50
2022/06/27 15:34:24;;;;;;;;;;;28.60;73.90;;;;;;5036338;28;19938;-55
2022/06/27 15:37:08;;;;;;;;;;;28.30;75.50;;;;;;5037430;28;20024;-55
2022/06/27 15:39:52;;;;;;;;;;;28.10;74.60;;;;;;5036786;28;20028;-57
2022/06/27 15:42:36;;;;;;;;;;;28.30;74.30;;;;;;5036064;28;19920;-57
2022/06/27 15:45:21;;;;;;;;;;;28.50;74.00;;;;;;5016159;28;20399;-57
2022/06/27 15:48:05;;;;;;;;;;;28.60;73.70;;;;;;5018665;28;19915;-56
2022/06/27 15:50:49;;;;;;;;;;;29.00;73.40;;;;;;5036773;28;19955;-56
2022/06/27 15:53:33;;;;;;;;;;;28.70;73.60;;;;;;5036143;28;20376;-55
2022/06/27 15:56:18;;;;;;;;;;;28.80;73.40;;;;;;5037087;28;19912;-57
2022/06/27 15:59:02;;;;;;;;;;;29.00;73.40;;;;;;5037240;28;19916;-53
2022/06/27 16:01:47;;;;;;;;;;;29.10;73.40;;;;;;5036338;28;20351;-55
2022/06/27 16:04:31;;;;;;;;;;;28.90;73.40;;;;;;5036491;28;19919;-55
2022/06/27 16:07:15;;;;;;;;;;;28.50;74.10;;;;;;5035755;28;19935;-55
2022/06/27 16:10:00;;;;;;;;;;;28.40;74.80;;;;;;5035664;28;20280;-57